createdAt,value
2019-04-26T00:01:52.042Z,34.60
2019-04-26T00:04:47.403Z,35.10
2019-04-26T00:07:42.267Z,34.90
2019-04-26T00:11:04.098Z,35.00
2019-04-26T00:14:23.059Z,35.10
2019-04-26T00:17:30.738Z,35.30
2019-04-26T00:20:26.082Z,35.40
2019-04-26T00:23:20.974Z,35.50
2019-04-26T00:26:15.826Z,35.50
2019-04-26T00:29:12.606Z,35.70
2019-04-26T00:32:08.117Z,35.70
2019-04-26T00:35:03.196Z,36.10
2019-04-26T00:37:58.539Z,36.20
2019-04-26T00:40:54.028Z,36.00
2019-04-26T00:43:48.809Z,35.90
2019-04-26T00:46:45.386Z,35.70
2019-04-26T00:49:43.867Z,35.90
2019-04-26T00:52:37.882Z,36.10
2019-04-26T00:55:34.534Z,36.10
2019-04-26T00:58:29.957Z,36.30
2019-04-26T01:01:28.058Z,36.60
2019-04-26T01:04:23.610Z,36.80
2019-04-26T01:07:19.445Z,37.10
2019-04-26T01:10:16.180Z,37.40
2019-04-26T01:13:10.728Z,37.70
2019-04-26T01:16:06.360Z,37.60
2019-04-26T01:19:02.459Z,37.50
2019-04-26T01:22:00.634Z,37.30
2019-04-26T01:24:56.839Z,36.50
2019-04-26T01:27:52.152Z,36.40
2019-04-26T01:30:48.646Z,36.60
2019-04-26T01:33:45.879Z,36.80
2019-04-26T01:36:42.384Z,36.70
2019-04-26T01:39:39.430Z,36.70
2019-04-26T01:42:45.433Z,36.60
2019-04-26T01:45:46.822Z,36.40
2019-04-26T01:48:49.267Z,36.40
2019-04-26T01:52:08.344Z,36.40
2019-04-26T01:55:03.235Z,36.50
2019-04-26T01:57:59.119Z,36.60
2019-04-26T02:01:01.822Z,36.90
2019-04-26T02:03:56.424Z,37.00
2019-04-26T02:06:51.678Z,37.00
2019-04-26T02:09:46.960Z,37.00
2019-04-26T02:12:42.639Z,37.00
2019-04-26T02:15:37.578Z,36.90
2019-04-26T02:18:33.569Z,37.10
2019-04-26T02:21:38.045Z,37.30
2019-04-26T02:24:42.942Z,37.50
2019-04-26T02:27:38.608Z,37.60
2019-04-26T02:30:34.717Z,37.50
2019-04-26T02:33:31.151Z,37.60
2019-04-26T02:36:44.991Z,37.70
2019-04-26T02:39:26.291Z,38.00
2019-04-26T02:42:30.787Z,37.90
2019-04-26T02:46:11.112Z,38.00
2019-04-26T02:49:24.928Z,38.00
2019-04-26T02:52:32.019Z,38.10
2019-04-26T02:56:16.494Z,38.20
2019-04-26T02:59:40.967Z,38.30
2019-04-26T03:02:37.305Z,38.30
2019-04-26T03:05:33.583Z,38.40
2019-04-26T03:08:29.861Z,38.50
2019-04-26T03:11:26.206Z,38.70
2019-04-26T03:15:12.527Z,38.80
2019-04-26T03:18:02.532Z,38.90
2019-04-26T03:21:02.480Z,39.00
2019-04-26T03:24:06.742Z,39.30
2019-04-26T03:27:55.746Z,39.40
2019-04-26T03:31:05.390Z,39.60
2019-04-26T03:34:40.550Z,39.70
2019-04-26T03:38:04.791Z,39.90
2019-04-26T03:41:07.330Z,40.10
2019-04-26T03:44:27.847Z,40.10
2019-04-26T03:47:25.781Z,40.10
2019-04-26T03:50:23.944Z,40.10
2019-04-26T03:53:54.678Z,40.40
2019-04-26T03:57:13.170Z,40.60
2019-04-26T04:00:23.509Z,40.30
2019-04-26T04:03:39.421Z,39.70
2019-04-26T04:06:52.401Z,39.20
2019-04-26T04:09:30.881Z,39.20
2019-04-26T04:12:47.985Z,38.80
2019-04-26T04:15:48.306Z,38.50
2019-04-26T04:18:43.778Z,38.40
2019-04-26T04:21:51.380Z,38.10
2019-04-26T04:24:55.491Z,38.20
2019-04-26T04:28:09.724Z,38.20
2019-04-26T04:31:16.032Z,38.10
2019-04-26T04:34:29.412Z,37.80
2019-04-26T04:37:25.561Z,37.40
2019-04-26T04:40:43.138Z,37.70
2019-04-26T04:43:45.214Z,37.60
2019-04-26T04:47:22.382Z,37.50
2019-04-26T04:50:35.068Z,37.40
2019-04-26T04:54:00.286Z,37.30
2019-04-26T04:57:08.292Z,37.40
2019-04-26T05:00:18.448Z,37.20
2019-04-26T05:03:29.414Z,37.10
2019-04-26T05:07:09.410Z,37.00
2019-04-26T05:10:33.449Z,36.40
2019-04-26T05:13:55.718Z,36.40
2019-04-26T05:17:23.792Z,36.00
2019-04-26T05:20:53.425Z,35.80
2019-04-26T05:24:19.542Z,35.90
2019-04-26T05:27:55.105Z,35.70
2019-04-26T05:31:38.120Z,35.50
2019-04-26T05:34:50.822Z,35.20
2019-04-26T05:38:18.486Z,35.10
2019-04-26T05:41:42.553Z,34.80
2019-04-26T05:45:24.493Z,34.70
2019-04-26T05:49:08.900Z,34.70
2019-04-26T05:52:43.273Z,34.50
2019-04-26T05:56:29.540Z,34.30
2019-04-26T05:59:44.134Z,34.00
2019-04-26T06:03:33.690Z,34.00
2019-04-26T06:06:43.736Z,33.90
2019-04-26T06:10:17.089Z,33.80
2019-04-26T06:14:01.954Z,33.50
2019-04-26T06:17:34.922Z,33.20
2019-04-26T06:20:54.086Z,33.10
2019-04-26T06:24:29.607Z,32.70
2019-04-26T06:31:44.729Z,31.80
2019-04-26T06:35:04.490Z,31.80
2019-04-26T06:38:22.389Z,31.50
2019-04-26T06:42:03.159Z,31.40
2019-04-26T06:45:50.763Z,31.30
2019-04-26T06:49:35.595Z,30.50
2019-04-26T06:52:32.925Z,30.10
2019-04-26T06:55:33.934Z,30.00
2019-04-26T06:59:17.065Z,29.90
2019-04-26T07:02:48.832Z,29.40
2019-04-26T07:05:52.311Z,29.30
2019-04-26T07:09:03.636Z,29.30
2019-04-26T07:12:34.117Z,29.20
2019-04-26T07:16:16.435Z,29.20
2019-04-26T07:19:30.151Z,29.10
2019-04-26T07:23:02.086Z,28.90
2019-04-26T07:26:38.566Z,28.80
2019-04-26T07:30:27.855Z,28.50
2019-04-26T07:33:51.773Z,28.00
2019-04-26T07:37:50.947Z,27.60
2019-04-26T07:41:45.513Z,27.50
2019-04-26T07:45:26.676Z,27.00
2019-04-26T07:48:57.352Z,27.00
2019-04-26T07:52:28.035Z,26.80
2019-04-26T07:55:39.529Z,26.90
2019-04-26T07:59:40.049Z,26.70
2019-04-26T08:03:10.807Z,26.80
2019-04-26T08:06:32.628Z,26.80
2019-04-26T08:09:30.430Z,26.60
2019-04-26T08:12:31.547Z,26.50
2019-04-26T08:15:45.721Z,26.40
2019-04-26T08:19:01.851Z,26.10
2019-04-26T08:22:15.150Z,25.80
2019-04-26T08:24:58.655Z,26.00
2019-04-26T08:27:56.486Z,25.60
2019-04-26T08:30:59.927Z,25.60
2019-04-26T08:34:03.126Z,25.40
2019-04-26T08:37:09.106Z,25.00
2019-04-26T08:40:16.407Z,24.70
2019-04-26T08:43:30.752Z,24.30
2019-04-26T08:46:56.941Z,24.40
2019-04-26T08:50:09.700Z,24.30
2019-04-26T08:53:08.363Z,24.30
2019-04-26T08:56:07.609Z,24.00
2019-04-26T08:59:08.666Z,23.90
2019-04-26T09:02:21.714Z,23.90
2019-04-26T09:05:41.974Z,23.60
2019-04-26T09:08:43.485Z,23.30
2019-04-26T09:11:41.294Z,23.00
2019-04-26T09:14:40.619Z,22.90
2019-04-26T09:17:36.240Z,22.60
2019-04-26T09:20:42.796Z,22.60
2019-04-26T09:23:59.671Z,22.50
2019-04-26T09:27:26.151Z,22.50
2019-04-26T09:30:52.473Z,22.20
2019-04-26T09:33:55.925Z,22.20
2019-04-26T09:36:56.682Z,22.00
2019-04-26T09:39:52.860Z,21.90
2019-04-26T09:43:05.812Z,21.80
2019-04-26T09:46:19.061Z,21.60
2019-04-26T09:49:42.545Z,21.40
2019-04-26T09:52:44.649Z,21.50
2019-04-26T09:55:40.359Z,21.50
2019-04-26T09:58:40.356Z,21.50
2019-04-26T10:01:38.406Z,21.50
2019-04-26T10:04:35.090Z,21.50
2019-04-26T10:07:37.574Z,21.60
2019-04-26T10:10:36.465Z,21.70
2019-04-26T10:13:49.365Z,21.80
2019-04-26T10:16:55.299Z,22.00
2019-04-26T10:19:55.289Z,22.10
2019-04-26T10:23:00.313Z,22.70
2019-04-26T10:26:00.534Z,22.10
2019-04-26T10:28:57.034Z,22.10
2019-04-26T10:31:55.007Z,22.20
2019-04-26T10:34:56.678Z,22.10
2019-04-26T10:37:54.886Z,21.80
2019-04-26T10:40:53.098Z,21.70
2019-04-26T10:43:50.834Z,21.90
2019-04-26T10:46:55.296Z,21.90
2019-04-26T10:49:54.318Z,21.90
2019-04-26T10:52:55.729Z,21.90
2019-04-26T10:56:24.108Z,22.10
2019-04-26T10:59:26.472Z,22.20
2019-04-26T11:02:27.978Z,22.20
2019-04-26T11:05:26.574Z,22.30
2019-04-26T11:08:23.441Z,22.50
2019-04-26T11:11:20.420Z,22.50
2019-04-26T11:14:22.335Z,22.50
2019-04-26T11:17:17.785Z,22.80
2019-04-26T11:20:16.582Z,22.90
2019-04-26T11:23:18.162Z,22.80
2019-04-26T11:26:16.633Z,22.60
2019-04-26T11:29:16.505Z,22.70
2019-04-26T11:35:57.824Z,22.40
2019-04-26T11:38:56.653Z,22.90
2019-04-26T11:42:02.110Z,23.10
2019-04-26T11:51:34.388Z,22.60
2019-04-26T11:54:36.077Z,23.10
2019-04-26T11:57:47.571Z,23.30
2019-04-26T12:00:47.707Z,23.50
2019-04-26T12:03:51.609Z,23.70
2019-04-26T12:06:56.462Z,23.90
2019-04-26T12:09:56.074Z,24.10
2019-04-26T12:13:04.869Z,24.20
2019-04-26T12:15:54.292Z,24.20
2019-04-26T12:18:53.540Z,24.40
2019-04-26T12:21:51.768Z,24.60
2019-04-26T12:24:50.683Z,24.50
2019-04-26T12:27:53.542Z,24.50
2019-04-26T12:31:02.703Z,24.70
2019-04-26T12:34:02.994Z,24.80
2019-04-26T12:37:03.027Z,24.90
2019-04-26T12:40:01.925Z,25.00
2019-04-26T12:43:01.279Z,25.10
2019-04-26T12:46:31.846Z,25.20
2019-04-26T12:49:35.423Z,25.30
2019-04-26T12:52:33.262Z,25.40
2019-04-26T12:55:32.048Z,25.40
2019-04-26T12:58:31.103Z,25.60
2019-04-26T13:01:30.869Z,25.70
2019-04-26T13:04:35.844Z,25.90
2019-04-26T13:07:25.826Z,26.00
2019-04-26T13:10:39.875Z,26.10
2019-04-26T13:13:55.345Z,26.40
2019-04-26T13:17:01.145Z,26.50
2019-04-26T13:19:55.568Z,26.70
2019-04-26T13:22:54.306Z,27.00
2019-04-26T13:25:50.437Z,27.10
2019-04-26T13:28:48.089Z,27.40
2019-04-26T13:31:47.496Z,27.40
2019-04-26T13:34:45.504Z,27.50
2019-04-26T13:37:44.665Z,27.50
2019-04-26T13:40:40.269Z,27.40
2019-04-26T13:43:35.564Z,27.60
2019-04-26T13:47:07.961Z,27.60
2019-04-26T13:50:13.276Z,27.70
2019-04-26T13:53:12.265Z,27.80
2019-04-26T13:56:07.859Z,27.80
2019-04-26T13:59:03.519Z,27.80
2019-04-26T14:02:10.808Z,28.00
2019-04-26T14:04:56.085Z,28.10
2019-04-26T14:07:51.317Z,28.00
2019-04-26T14:10:49.730Z,28.00
2019-04-26T14:13:41.956Z,28.00
2019-04-26T14:16:37.172Z,28.10
2019-04-26T14:19:33.442Z,28.10
2019-04-26T14:22:37.028Z,28.10
2019-04-26T14:25:33.472Z,28.00
2019-04-26T14:28:29.816Z,28.00
2019-04-26T14:31:24.990Z,28.10
2019-04-26T14:34:20.984Z,28.00
2019-04-26T14:37:16.737Z,28.00
2019-04-26T14:40:17.180Z,28.30
2019-04-26T14:43:12.022Z,27.90
2019-04-26T14:46:10.526Z,28.00
2019-04-26T14:49:08.110Z,28.10
2019-04-26T14:52:06.410Z,28.10
2019-04-26T14:55:05.937Z,28.20
2019-04-26T14:58:02.048Z,28.20
2019-04-26T15:01:00.817Z,28.30
2019-04-26T15:04:14.223Z,28.30
2019-04-26T15:07:10.131Z,28.20
2019-04-26T15:10:06.841Z,28.20
2019-04-26T15:13:14.309Z,28.30
2019-04-26T15:15:58.023Z,28.60
2019-04-26T15:18:54.067Z,28.70
2019-04-26T15:21:52.311Z,28.60
2019-04-26T15:24:46.742Z,28.60
2019-04-26T15:27:44.118Z,28.50
2019-04-26T15:30:44.538Z,28.60
2019-04-26T15:33:37.081Z,28.90
2019-04-26T15:36:33.473Z,28.90
2019-04-26T15:39:55.135Z,29.00
2019-04-26T15:43:02.641Z,29.10
2019-04-26T15:46:12.518Z,28.90
2019-04-26T15:49:36.366Z,28.90
2019-04-26T15:52:34.119Z,28.90
2019-04-26T15:55:39.689Z,28.90
2019-04-26T15:58:29.903Z,28.90
2019-04-26T16:01:26.708Z,28.70
2019-04-26T16:04:23.932Z,28.70
2019-04-26T16:07:27.410Z,28.70
2019-04-26T16:10:18.639Z,28.70
2019-04-26T16:13:20.935Z,28.70
2019-04-26T16:16:16.591Z,28.80
2019-04-26T16:19:17.600Z,28.80
2019-04-26T16:22:17.687Z,28.80
2019-04-26T16:25:18.661Z,28.80
2019-04-26T16:28:44.488Z,28.80
2019-04-26T16:31:52.907Z,28.80
2019-04-26T16:34:52.840Z,28.80
2019-04-26T16:37:48.630Z,29.00
2019-04-26T16:40:50.641Z,29.00
2019-04-26T16:43:53.114Z,28.90
2019-04-26T16:46:44.072Z,28.90
2019-04-26T16:49:43.411Z,29.00
2019-04-26T16:52:43.535Z,29.00
2019-04-26T16:55:49.217Z,29.10
2019-04-26T16:58:38.129Z,29.20
2019-04-26T17:01:38.096Z,29.10
2019-04-26T17:04:36.334Z,29.20
2019-04-26T17:07:32.909Z,28.90
2019-04-26T17:10:29.466Z,28.90
2019-04-26T17:13:29.928Z,28.80
2019-04-26T17:16:25.656Z,28.90
2019-04-26T17:19:22.973Z,29.50
2019-04-26T17:22:41.797Z,29.40
2019-04-26T17:25:47.301Z,29.50
2019-04-26T17:28:43.944Z,29.50
2019-04-26T17:31:41.067Z,29.60
2019-04-26T17:34:36.852Z,29.70
2019-04-26T17:37:33.660Z,29.70
2019-04-26T17:40:36.174Z,29.80
2019-04-26T17:43:28.487Z,30.00
2019-04-26T17:46:25.350Z,30.00
2019-04-26T17:49:26.965Z,30.00
2019-04-26T17:52:20.281Z,30.00
2019-04-26T17:55:16.340Z,30.20
2019-04-26T17:58:17.354Z,30.40
2019-04-26T18:01:09.487Z,30.40
2019-04-26T18:04:06.127Z,30.50
2019-04-26T18:07:08.131Z,30.70
2019-04-26T18:10:02.371Z,30.70
2019-04-26T18:12:56.531Z,30.90
2019-04-26T18:15:53.444Z,31.10
2019-04-26T18:19:02.432Z,31.40
2019-04-26T18:22:14.703Z,31.50
2019-04-26T18:25:12.694Z,31.60
2019-04-26T18:28:08.699Z,31.60
2019-04-26T18:31:05.605Z,31.60
2019-04-26T18:34:01.793Z,31.80
2019-04-26T18:36:57.407Z,31.90
2019-04-26T18:39:57.340Z,32.10
2019-04-26T18:42:50.158Z,32.10
2019-04-26T18:45:47.892Z,32.20
2019-04-26T18:48:46.022Z,32.20
2019-04-26T18:51:47.843Z,32.50
2019-04-26T18:54:59.202Z,32.50
2019-04-26T18:58:01.522Z,32.70
2019-04-26T19:00:53.100Z,32.80
2019-04-26T19:03:51.022Z,32.90
2019-04-26T19:06:47.478Z,32.90
2019-04-26T19:09:58.554Z,32.90
2019-04-26T19:12:43.687Z,32.90
2019-04-26T19:15:54.234Z,33.20
2019-04-26T19:18:56.674Z,33.60
2019-04-26T19:22:00.675Z,33.50
2019-04-26T19:24:57.478Z,33.60
2019-04-26T19:27:53.924Z,33.70
2019-04-26T19:30:50.974Z,33.70
2019-04-26T19:33:43.681Z,33.70
2019-04-26T19:36:41.950Z,33.80
2019-04-26T19:39:37.826Z,33.80
2019-04-26T19:42:34.587Z,33.70
2019-04-26T19:45:49.598Z,33.70
2019-04-26T19:49:14.471Z,33.80
2019-04-26T19:52:22.149Z,33.80
2019-04-26T19:55:51.328Z,33.80
2019-04-26T19:58:50.713Z,34.00
2019-04-26T20:01:47.830Z,34.20
2019-04-26T20:04:46.384Z,34.30
2019-04-26T20:07:43.883Z,34.30
2019-04-26T20:10:45.424Z,34.10
2019-04-26T20:13:38.308Z,34.30
2019-04-26T20:16:36.479Z,34.10
2019-04-26T20:19:37.228Z,34.00
2019-04-26T20:22:30.577Z,33.90
2019-04-26T20:25:26.447Z,33.70
2019-04-26T20:28:22.783Z,33.60
2019-04-26T20:31:30.131Z,33.70
2019-04-26T20:34:26.361Z,33.80
2019-04-26T20:37:25.662Z,33.90
2019-04-26T20:40:22.515Z,34.00
2019-04-26T20:43:24.451Z,34.20
2019-04-26T20:46:15.215Z,34.10
2019-04-26T20:49:09.304Z,34.20
2019-04-26T20:52:04.595Z,34.50
2019-04-26T20:55:00.917Z,34.40
2019-04-26T20:57:59.681Z,34.40
2019-04-26T21:00:54.885Z,34.30
2019-04-26T21:03:51.842Z,34.30
2019-04-26T21:06:48.867Z,34.40
2019-04-26T21:09:45.399Z,34.50
2019-04-26T21:12:43.175Z,34.80
2019-04-26T21:15:53.421Z,35.00
2019-04-26T21:18:40.306Z,35.00
2019-04-26T21:21:43.505Z,34.70
2019-04-26T21:24:37.774Z,34.70
2019-04-26T21:27:47.801Z,34.70
2019-04-26T21:30:51.470Z,34.60
2019-04-26T21:33:50.804Z,34.60
2019-04-26T21:37:23.336Z,34.70
2019-04-26T21:40:40.997Z,34.70
2019-04-26T21:43:39.401Z,34.60
2019-04-26T21:46:37.742Z,34.60
2019-04-26T21:49:37.958Z,34.60
2019-04-26T21:52:34.288Z,34.80
2019-04-26T21:55:35.282Z,35.10
2019-04-26T21:58:29.648Z,35.30
2019-04-26T22:01:27.388Z,35.30
2019-04-26T22:04:28.635Z,35.40
2019-04-26T22:07:24.156Z,35.60
2019-04-26T22:10:43.673Z,35.60
2019-04-26T22:13:51.775Z,35.70
2019-04-26T22:17:02.200Z,35.70
2019-04-26T22:20:17.934Z,36.30
2019-04-26T22:23:25.899Z,36.20
2019-04-26T22:26:20.937Z,36.30
2019-04-26T22:29:16.943Z,36.60
2019-04-26T22:32:15.916Z,36.70
2019-04-26T22:35:19.914Z,37.00
2019-04-26T22:38:13.027Z,37.00
2019-04-26T22:41:13.322Z,37.00
2019-04-26T22:44:17.767Z,37.20
2019-04-26T22:47:45.065Z,36.70
2019-04-26T22:50:43.563Z,37.50
2019-04-26T22:53:38.459Z,37.50
2019-04-26T22:56:37.254Z,37.70
2019-04-26T22:59:31.079Z,38.00
2019-04-26T23:02:27.565Z,38.10
2019-04-26T23:05:23.618Z,38.30
2019-04-26T23:08:19.460Z,38.10
2019-04-26T23:11:15.849Z,38.50
2019-04-26T23:14:25.718Z,38.10
2019-04-26T23:17:35.704Z,38.20
2019-04-26T23:20:38.874Z,38.30
2019-04-26T23:23:37.167Z,38.30
2019-04-26T23:26:33.351Z,38.30
2019-04-26T23:29:29.346Z,38.40
2019-04-26T23:32:25.592Z,38.40
2019-04-26T23:35:21.877Z,38.30
2019-04-26T23:38:17.851Z,38.40
2019-04-26T23:41:14.626Z,38.50
2019-04-26T23:44:10.892Z,38.50
2019-04-26T23:47:18.606Z,38.50
2019-04-26T23:50:04.040Z,38.50
2019-04-26T23:53:02.944Z,38.40
2019-04-26T23:55:59.300Z,38.40
2019-04-26T23:58:56.019Z,38.40
